sensor_id;sensor_type;location;lat;lon;timestamp;P1;P2;P0
68341;PMS7003;55668;52.310;21.066;2023-09-19T00:14:57;20;20;
68341;PMS7003;55668;52.310;21.066;2023-09-19T00:26:31;19;19;
68341;PMS7003;55668;52.310;21.066;2023-09-19T01:12:09;19;19;
68341;PMS7003;55668;52.310;21.066;2023-09-19T01:29:21;20;20;
68341;PMS7003;55668;52.310;21.066;2023-09-19T02:14:05;20;20;
68341;PMS7003;55668;52.310;21.066;2023-09-19T02:45:33;22;21;
68341;PMS7003;55668;52.310;21.066;2023-09-19T03:00:09;18;18;
68341;PMS7003;55668;52.310;21.066;2023-09-19T03:31:38;19;19;
68341;PMS7003;55668;52.310;21.066;2023-09-19T03:49:49;20;20;
68341;PMS7003;55668;52.310;21.066;2023-09-19T04:03:16;19;19;
68341;PMS7003;55668;52.310;21.066;2023-09-19T04:46:45;17;17;
68341;PMS7003;55668;52.310;21.066;2023-09-19T05:05:50;20;20;
68341;PMS7003;55668;52.310;21.066;2023-09-19T05:18:12;22;21;
68341;PMS7003;55668;52.310;21.066;2023-09-19T05:34:52;19;18;
68341;PMS7003;55668;52.310;21.066;2023-09-19T06:20:26;18;18;
68341;PMS7003;55668;52.310;21.066;2023-09-19T06:38:15;17;17;
68341;PMS7003;55668;52.310;21.066;2023-09-19T06:50:39;14;14;
68341;PMS7003;55668;52.310;21.066;2023-09-19T07:06:09;17;17;
68341;PMS7003;55668;52.310;21.066;2023-09-19T07:22:04;15;15;
68341;PMS7003;55668;52.310;21.066;2023-09-19T07:42:16;17;16;
68341;PMS7003;55668;52.310;21.066;2023-09-19T07:54:17;25;25;
68341;PMS7003;55668;52.310;21.066;2023-09-19T08:10:15;28;27;
68341;PMS7003;55668;52.310;21.066;2023-09-19T08:37:53;30;30;
68341;PMS7003;55668;52.310;21.066;2023-09-19T08:54:20;28;28;
68341;PMS7003;55668;52.310;21.066;2023-09-19T09:07:32;25;25;
68341;PMS7003;55668;52.310;21.066;2023-09-19T09:23:16;23;23;
68341;PMS7003;55668;52.310;21.066;2023-09-19T09:38:13;27;27;
68341;PMS7003;55668;52.310;21.066;2023-09-19T09:53:20;22;22;
68341;PMS7003;55668;52.310;21.066;2023-09-19T10:09:07;15;15;
68341;PMS7003;55668;52.310;21.066;2023-09-19T10:24:57;18;18;
68341;PMS7003;55668;52.310;21.066;2023-09-19T10:39:14;17;17;
68341;PMS7003;55668;52.310;21.066;2023-09-19T10:54:38;12;12;
68341;PMS7003;55668;52.310;21.066;2023-09-19T11:11:42;10;10;
68341;PMS7003;55668;52.310;21.066;2023-09-19T11:56:38;7;7;
68341;PMS7003;55668;52.310;21.066;2023-09-19T12:11:14;10;10;
68341;PMS7003;55668;52.310;21.066;2023-09-19T12:26:41;13;13;
68341;PMS7003;55668;52.310;21.066;2023-09-19T12:57:23;13;13;
68341;PMS7003;55668;52.310;21.066;2023-09-19T13:14:31;17;17;
68341;PMS7003;55668;52.310;21.066;2023-09-19T13:48:46;20;19;
68341;PMS7003;55668;52.310;21.066;2023-09-19T14:14:03;18;18;
68341;PMS7003;55668;52.310;21.066;2023-09-19T14:46:27;18;18;
68341;PMS7003;55668;52.310;21.066;2023-09-19T15:02:12;15;15;
68341;PMS7003;55668;52.310;21.066;2023-09-19T15:46:29;16;16;
68341;PMS7003;55668;52.310;21.066;2023-09-19T16:18:16;14;14;
68341;PMS7003;55668;52.310;21.066;2023-09-19T16:31:55;13;13;
68341;PMS7003;55668;52.310;21.066;2023-09-19T17:19:45;12;12;
68341;PMS7003;55668;52.310;21.066;2023-09-19T17:36:34;12;10;
68341;PMS7003;55668;52.310;21.066;2023-09-19T17:55:15;12;12;
68341;PMS7003;55668;52.310;21.066;2023-09-19T18:05:15;10;10;
68341;PMS7003;55668;52.310;21.066;2023-09-19T18:40:28;10;10;
68341;PMS7003;55668;52.310;21.066;2023-09-19T18:55:31;9;9;
68341;PMS7003;55668;52.310;21.066;2023-09-19T19:06:29;8;6;
68341;PMS7003;55668;52.310;21.066;2023-09-19T19:24:35;7;7;
68341;PMS7003;55668;52.310;21.066;2023-09-19T19:37:45;6;6;
68341;PMS7003;55668;52.310;21.066;2023-09-19T19:51:42;6;6;
68341;PMS7003;55668;52.310;21.066;2023-09-19T20:07:41;7;7;
68341;PMS7003;55668;52.310;21.066;2023-09-19T20:29:13;7;7;
68341;PMS7003;55668;52.310;21.066;2023-09-19T20:54:28;7;7;
68341;PMS7003;55668;52.310;21.066;2023-09-19T21:13:02;6;6;
68341;PMS7003;55668;52.310;21.066;2023-09-19T21:23:32;7;7;
68341;PMS7003;55668;52.310;21.066;2023-09-19T21:44:01;7;7;
68341;PMS7003;55668;52.310;21.066;2023-09-19T22:26:38;6;6;
68341;PMS7003;55668;52.310;21.066;2023-09-19T22:46:52;6;6;
68341;PMS7003;55668;52.310;21.066;2023-09-19T23:10:39;7;7;
68341;PMS7003;55668;52.310;21.066;2023-09-19T23:25:50;8;8;
68341;PMS7003;55668;52.310;21.066;2023-09-19T23:42:17;8;8;
